sensor_id;sensor_type;location;lat;lon;timestamp;temperature;humidity
35796;DHT22;21916;52.428;13.302;2022-07-15T00:02:22;14.30;99.90
35796;DHT22;21916;52.428;13.302;2022-07-15T00:04:48;14.30;99.90
35796;DHT22;21916;52.428;13.302;2022-07-15T00:07:14;14.30;99.90
35796;DHT22;21916;52.428;13.302;2022-07-15T00:09:40;14.20;99.90
35796;DHT22;21916;52.428;13.302;2022-07-15T00:12:25;14.20;99.90
35796;DHT22;21916;52.428;13.302;2022-07-15T00:14:51;14.10;99.90
35796;DHT22;21916;52.428;13.302;2022-07-15T00:17:20;14.20;99.90
35796;DHT22;21916;52.428;13.302;2022-07-15T00:19:46;14.10;99.90
35796;DHT22;21916;52.428;13.302;2022-07-15T00:22:12;14.10;99.90
35796;DHT22;21916;52.428;13.302;2022-07-15T00:24:38;14.10;99.90
35796;DHT22;21916;52.428;13.302;2022-07-15T00:27:04;14.00;99.90
35796;DHT22;21916;52.428;13.302;2022-07-15T00:29:31;14.00;99.90
35796;DHT22;21916;52.428;13.302;2022-07-15T00:31:57;14.00;99.90
35796;DHT22;21916;52.428;13.302;2022-07-15T00:34:23;14.00;99.90
35796;DHT22;21916;52.428;13.302;2022-07-15T00:36:49;13.90;99.90
35796;DHT22;21916;52.428;13.302;2022-07-15T00:39:16;13.90;99.90
35796;DHT22;21916;52.428;13.302;2022-07-15T00:41:43;13.90;99.90
35796;DHT22;21916;52.428;13.302;2022-07-15T00:44:10;13.90;99.90
35796;DHT22;21916;52.428;13.302;2022-07-15T00:46:37;13.80;99.90
35796;DHT22;21916;52.428;13.302;2022-07-15T00:49:07;13.80;99.90
35796;DHT22;21916;52.428;13.302;2022-07-15T00:51:54;13.80;99.90
35796;DHT22;21916;52.428;13.302;2022-07-15T00:54:25;13.80;99.90
35796;DHT22;21916;52.428;13.302;2022-07-15T00:56:54;13.80;99.90
35796;DHT22;21916;52.428;13.302;2022-07-15T00:59:23;13.80;99.90
35796;DHT22;21916;52.428;13.302;2022-07-15T01:01:52;13.80;99.90
35796;DHT22;21916;52.428;13.302;2022-07-15T01:04:20;13.80;99.90
35796;DHT22;21916;52.428;13.302;2022-07-15T01:06:46;13.80;99.90
35796;DHT22;21916;52.428;13.302;2022-07-15T01:09:12;13.70;99.90
35796;DHT22;21916;52.428;13.302;2022-07-15T01:11:38;13.80;99.90
35796;DHT22;21916;52.428;13.302;2022-07-15T01:14:05;13.80;99.90
35796;DHT22;21916;52.428;13.302;2022-07-15T01:16:31;13.70;99.90
35796;DHT22;21916;52.428;13.302;2022-07-15T01:18:57;13.70;99.90
35796;DHT22;21916;52.428;13.302;2022-07-15T01:21:29;13.70;99.90
35796;DHT22;21916;52.428;13.302;2022-07-15T01:23:57;13.70;99.90
35796;DHT22;21916;52.428;13.302;2022-07-15T01:26:30;13.60;99.90
35796;DHT22;21916;52.428;13.302;2022-07-15T01:28:57;13.60;99.90
35796;DHT22;21916;52.428;13.302;2022-07-15T01:31:24;13.60;99.90
35796;DHT22;21916;52.428;13.302;2022-07-15T01:33:50;13.60;99.90
35796;DHT22;21916;52.428;13.302;2022-07-15T01:36:18;13.50;99.90
35796;DHT22;21916;52.428;13.302;2022-07-15T01:38:51;13.50;99.90
35796;DHT22;21916;52.428;13.302;2022-07-15T01:41:18;13.40;99.90
35796;DHT22;21916;52.428;13.302;2022-07-15T01:43:44;13.40;99.90
35796;DHT22;21916;52.428;13.302;2022-07-15T01:46:09;13.30;99.90
35796;DHT22;21916;52.428;13.302;2022-07-15T01:48:37;13.30;99.90
35796;DHT22;21916;52.428;13.302;2022-07-15T01:51:42;13.30;99.90
35796;DHT22;21916;52.428;13.302;2022-07-15T01:54:08;13.20;99.90
35796;DHT22;21916;52.428;13.302;2022-07-15T01:56:34;13.10;99.90
35796;DHT22;21916;52.428;13.302;2022-07-15T01:59:02;13.20;99.90
35796;DHT22;21916;52.428;13.302;2022-07-15T02:01:30;13.10;99.90
35796;DHT22;21916;52.428;13.302;2022-07-15T02:03:58;13.10;99.90
35796;DHT22;21916;52.428;13.302;2022-07-15T02:06:23;13.10;99.90
35796;DHT22;21916;52.428;13.302;2022-07-15T02:08:49;13.10;99.90
35796;DHT22;21916;52.428;13.302;2022-07-15T02:11:18;13.00;99.90
35796;DHT22;21916;52.428;13.302;2022-07-15T02:13:48;13.00;99.90
35796;DHT22;21916;52.428;13.302;2022-07-15T02:16:15;12.90;99.90
35796;DHT22;21916;52.428;13.302;2022-07-15T02:18:41;12.90;99.90
35796;DHT22;21916;52.428;13.302;2022-07-15T02:21:08;12.90;99.90
35796;DHT22;21916;52.428;13.302;2022-07-15T02:23:34;12.90;99.90
35796;DHT22;21916;52.428;13.302;2022-07-15T02:26:00;12.90;99.90
35796;DHT22;21916;52.428;13.302;2022-07-15T02:28:27;12.90;99.90
35796;DHT22;21916;52.428;13.302;2022-07-15T02:30:54;12.90;99.90
35796;DHT22;21916;52.428;13.302;2022-07-15T02:33:20;12.90;99.90
35796;DHT22;21916;52.428;13.302;2022-07-15T02:35:46;12.90;99.90
35796;DHT22;21916;52.428;13.302;2022-07-15T02:38:12;12.90;99.90
35796;DHT22;21916;52.428;13.302;2022-07-15T02:40:38;12.90;99.90
35796;DHT22;21916;52.428;13.302;2022-07-15T02:43:05;12.90;99.90
35796;DHT22;21916;52.428;13.302;2022-07-15T02:45:35;12.80;99.90
35796;DHT22;21916;52.428;13.302;2022-07-15T02:48:05;12.90;99.90
35796;DHT22;21916;52.428;13.302;2022-07-15T02:50:35;12.80;99.90
35796;DHT22;21916;52.428;13.302;2022-07-15T02:53:02;12.80;99.90
35796;DHT22;21916;52.428;13.302;2022-07-15T02:55:29;12.70;99.90
35796;DHT22;21916;52.428;13.302;2022-07-15T02:57:55;12.80;99.90
35796;DHT22;21916;52.428;13.302;2022-07-15T03:00:23;12.80;99.90
35796;DHT22;21916;52.428;13.302;2022-07-15T03:02:55;12.80;99.90
35796;DHT22;21916;52.428;13.302;2022-07-15T03:05:22;12.70;99.90
35796;DHT22;21916;52.428;13.302;2022-07-15T03:07:48;12.70;99.90
35796;DHT22;21916;52.428;13.302;2022-07-15T03:10:17;12.70;99.90
35796;DHT22;21916;52.428;13.302;2022-07-15T03:12:44;12.70;99.90
35796;DHT22;21916;52.428;13.302;2022-07-15T03:15:10;12.60;99.90
35796;DHT22;21916;52.428;13.302;2022-07-15T03:17:39;12.70;99.90
35796;DHT22;21916;52.428;13.302;2022-07-15T03:20:09;12.70;99.90
35796;DHT22;21916;52.428;13.302;2022-07-15T03:22:41;12.70;99.90
35796;DHT22;21916;52.428;13.302;2022-07-15T03:25:08;12.70;99.90
35796;DHT22;21916;52.428;13.302;2022-07-15T03:27:34;12.70;99.90
35796;DHT22;21916;52.428;13.302;2022-07-15T03:30:00;12.70;99.90
35796;DHT22;21916;52.428;13.302;2022-07-15T03:32:26;12.70;99.90
35796;DHT22;21916;52.428;13.302;2022-07-15T03:34:53;12.70;99.90
35796;DHT22;21916;52.428;13.302;2022-07-15T03:37:24;12.70;99.90
35796;DHT22;21916;52.428;13.302;2022-07-15T03:39:50;12.80;99.90
35796;DHT22;21916;52.428;13.302;2022-07-15T03:42:16;12.80;99.90
35796;DHT22;21916;52.428;13.302;2022-07-15T03:44:43;12.80;99.90
35796;DHT22;21916;52.428;13.302;2022-07-15T03:47:09;12.80;99.90
35796;DHT22;21916;52.428;13.302;2022-07-15T03:49:35;12.80;99.90
35796;DHT22;21916;52.428;13.302;2022-07-15T03:52:02;12.90;99.90
35796;DHT22;21916;52.428;13.302;2022-07-15T03:54:28;12.90;99.90
35796;DHT22;21916;52.428;13.302;2022-07-15T03:56:54;12.90;99.90
35796;DHT22;21916;52.428;13.302;2022-07-15T03:59:21;12.90;99.90
35796;DHT22;21916;52.428;13.302;2022-07-15T04:01:47;12.90;99.90
35796;DHT22;21916;52.428;13.302;2022-07-15T04:04:16;13.00;99.90
35796;DHT22;21916;52.428;13.302;2022-07-15T04:06:42;13.00;99.90
35796;DHT22;21916;52.428;13.302;2022-07-15T04:09:08;13.10;99.90
35796;DHT22;21916;52.428;13.302;2022-07-15T04:11:36;13.10;99.90
35796;DHT22;21916;52.428;13.302;2022-07-15T04:14:11;13.10;99.90
35796;DHT22;21916;52.428;13.302;2022-07-15T04:16:40;13.10;99.90
35796;DHT22;21916;52.428;13.302;2022-07-15T04:19:19;13.10;99.90
35796;DHT22;21916;52.428;13.302;2022-07-15T04:21:45;13.10;99.90
35796;DHT22;21916;52.428;13.302;2022-07-15T04:24:11;13.10;99.90
35796;DHT22;21916;52.428;13.302;2022-07-15T04:26:38;13.10;99.90
35796;DHT22;21916;52.428;13.302;2022-07-15T04:29:04;13.10;99.90
35796;DHT22;21916;52.428;13.302;2022-07-15T04:31:30;13.20;99.90
35796;DHT22;21916;52.428;13.302;2022-07-15T04:34:06;13.10;99.90
35796;DHT22;21916;52.428;13.302;2022-07-15T04:36:32;13.10;99.90
35796;DHT22;21916;52.428;13.302;2022-07-15T04:38:58;13.10;99.90
35796;DHT22;21916;52.428;13.302;2022-07-15T04:41:24;13.20;99.90
35796;DHT22;21916;52.428;13.302;2022-07-15T04:43:50;13.20;99.90
35796;DHT22;21916;52.428;13.302;2022-07-15T04:46:16;13.30;99.90
35796;DHT22;21916;52.428;13.302;2022-07-15T04:48:44;13.30;99.90
35796;DHT22;21916;52.428;13.302;2022-07-15T04:51:31;13.40;99.90
35796;DHT22;21916;52.428;13.302;2022-07-15T04:53:57;13.60;99.90
35796;DHT22;21916;52.428;13.302;2022-07-15T04:56:23;13.70;99.90
35796;DHT22;21916;52.428;13.302;2022-07-15T04:58:59;13.70;99.90
35796;DHT22;21916;52.428;13.302;2022-07-15T05:01:26;13.80;99.90
35796;DHT22;21916;52.428;13.302;2022-07-15T05:03:51;13.80;99.90
35796;DHT22;21916;52.428;13.302;2022-07-15T05:06:19;13.90;99.90
35796;DHT22;21916;52.428;13.302;2022-07-15T05:08:45;13.90;99.90
35796;DHT22;21916;52.428;13.302;2022-07-15T05:11:14;13.90;99.90
35796;DHT22;21916;52.428;13.302;2022-07-15T05:13:39;13.90;99.90
35796;DHT22;21916;52.428;13.302;2022-07-15T05:16:07;13.80;99.90
35796;DHT22;21916;52.428;13.302;2022-07-15T05:18:33;13.80;99.90
35796;DHT22;21916;52.428;13.302;2022-07-15T05:21:01;13.80;99.90
35796;DHT22;21916;52.428;13.302;2022-07-15T05:23:30;14.00;99.90
35796;DHT22;21916;52.428;13.302;2022-07-15T05:26:01;14.10;99.90
35796;DHT22;21916;52.428;13.302;2022-07-15T05:28:28;14.20;99.90
35796;DHT22;21916;52.428;13.302;2022-07-15T05:30:54;14.20;99.90
35796;DHT22;21916;52.428;13.302;2022-07-15T05:33:21;14.30;99.90
35796;DHT22;21916;52.428;13.302;2022-07-15T05:35:49;14.30;99.90
35796;DHT22;21916;52.428;13.302;2022-07-15T05:38:15;14.40;99.90
35796;DHT22;21916;52.428;13.302;2022-07-15T05:40:42;14.50;99.90
35796;DHT22;21916;52.428;13.302;2022-07-15T05:43:09;14.60;99.90
35796;DHT22;21916;52.428;13.302;2022-07-15T05:45:38;14.50;99.90
35796;DHT22;21916;52.428;13.302;2022-07-15T05:48:07;14.50;99.90
35796;DHT22;21916;52.428;13.302;2022-07-15T05:50:40;14.40;99.90
35796;DHT22;21916;52.428;13.302;2022-07-15T05:53:08;14.50;99.90
35796;DHT22;21916;52.428;13.302;2022-07-15T05:55:34;14.50;99.90
35796;DHT22;21916;52.428;13.302;2022-07-15T05:58:06;14.50;99.90
35796;DHT22;21916;52.428;13.302;2022-07-15T06:00:32;14.50;99.90
35796;DHT22;21916;52.428;13.302;2022-07-15T06:03:00;14.50;99.90
35796;DHT22;21916;52.428;13.302;2022-07-15T06:05:29;14.60;99.90
35796;DHT22;21916;52.428;13.302;2022-07-15T06:07:58;14.70;99.90
35796;DHT22;21916;52.428;13.302;2022-07-15T06:10:29;14.80;99.90
35796;DHT22;21916;52.428;13.302;2022-07-15T06:12:56;15.00;99.90
35796;DHT22;21916;52.428;13.302;2022-07-15T06:15:22;15.10;99.90
35796;DHT22;21916;52.428;13.302;2022-07-15T06:17:49;15.20;99.90
35796;DHT22;21916;52.428;13.302;2022-07-15T06:20:16;15.40;99.90
35796;DHT22;21916;52.428;13.302;2022-07-15T06:22:42;15.30;99.90
35796;DHT22;21916;52.428;13.302;2022-07-15T06:25:08;15.30;99.90
35796;DHT22;21916;52.428;13.302;2022-07-15T06:27:35;15.30;99.90
35796;DHT22;21916;52.428;13.302;2022-07-15T06:30:01;15.40;99.90
35796;DHT22;21916;52.428;13.302;2022-07-15T06:32:27;15.50;99.90
35796;DHT22;21916;52.428;13.302;2022-07-15T06:34:54;15.50;99.90
35796;DHT22;21916;52.428;13.302;2022-07-15T06:37:20;15.50;99.90
35796;DHT22;21916;52.428;13.302;2022-07-15T06:39:47;15.40;99.90
35796;DHT22;21916;52.428;13.302;2022-07-15T06:42:13;15.50;99.90
35796;DHT22;21916;52.428;13.302;2022-07-15T06:44:39;15.70;99.90
35796;DHT22;21916;52.428;13.302;2022-07-15T06:47:07;15.90;99.90
35796;DHT22;21916;52.428;13.302;2022-07-15T06:49:33;15.90;99.90
35796;DHT22;21916;52.428;13.302;2022-07-15T06:52:02;16.10;99.90
35796;DHT22;21916;52.428;13.302;2022-07-15T06:54:29;16.10;99.90
35796;DHT22;21916;52.428;13.302;2022-07-15T06:56:56;15.90;99.90
35796;DHT22;21916;52.428;13.302;2022-07-15T06:59:23;15.80;99.90
35796;DHT22;21916;52.428;13.302;2022-07-15T07:01:49;15.80;99.90
35796;DHT22;21916;52.428;13.302;2022-07-15T07:04:15;16.00;99.90
35796;DHT22;21916;52.428;13.302;2022-07-15T07:06:41;16.00;99.90
35796;DHT22;21916;52.428;13.302;2022-07-15T07:09:06;15.90;99.90
35796;DHT22;21916;52.428;13.302;2022-07-15T07:11:32;16.00;99.90
35796;DHT22;21916;52.428;13.302;2022-07-15T07:13:59;16.20;99.90
35796;DHT22;21916;52.428;13.302;2022-07-15T07:16:27;16.20;99.90
35796;DHT22;21916;52.428;13.302;2022-07-15T07:18:53;16.10;99.90
35796;DHT22;21916;52.428;13.302;2022-07-15T07:21:20;16.10;99.90
35796;DHT22;21916;52.428;13.302;2022-07-15T07:23:46;16.10;99.90
35796;DHT22;21916;52.428;13.302;2022-07-15T07:26:13;16.20;99.90
35796;DHT22;21916;52.428;13.302;2022-07-15T07:28:40;16.10;99.90
35796;DHT22;21916;52.428;13.302;2022-07-15T07:31:11;16.30;99.90
35796;DHT22;21916;52.428;13.302;2022-07-15T07:33:37;16.20;99.90
35796;DHT22;21916;52.428;13.302;2022-07-15T07:36:05;16.20;99.90
35796;DHT22;21916;52.428;13.302;2022-07-15T07:38:34;16.30;99.90
35796;DHT22;21916;52.428;13.302;2022-07-15T07:41:01;16.40;99.90
35796;DHT22;21916;52.428;13.302;2022-07-15T07:43:27;16.50;99.90
35796;DHT22;21916;52.428;13.302;2022-07-15T07:45:53;16.50;99.90
35796;DHT22;21916;52.428;13.302;2022-07-15T07:48:20;16.70;99.90
35796;DHT22;21916;52.428;13.302;2022-07-15T07:50:46;17.00;99.90
35796;DHT22;21916;52.428;13.302;2022-07-15T07:53:12;16.90;99.90
35796;DHT22;21916;52.428;13.302;2022-07-15T07:55:39;16.90;99.90
35796;DHT22;21916;52.428;13.302;2022-07-15T07:58:05;16.90;99.90
35796;DHT22;21916;52.428;13.302;2022-07-15T08:00:32;16.90;99.90
35796;DHT22;21916;52.428;13.302;2022-07-15T08:02:59;17.00;99.90
35796;DHT22;21916;52.428;13.302;2022-07-15T08:05:26;17.10;99.90
35796;DHT22;21916;52.428;13.302;2022-07-15T08:08:28;17.20;99.90
35796;DHT22;21916;52.428;13.302;2022-07-15T08:10:56;17.50;99.90
35796;DHT22;21916;52.428;13.302;2022-07-15T08:13:25;17.50;99.90
35796;DHT22;21916;52.428;13.302;2022-07-15T08:15:52;17.20;99.90
35796;DHT22;21916;52.428;13.302;2022-07-15T08:18:22;17.40;99.90
35796;DHT22;21916;52.428;13.302;2022-07-15T08:20:48;17.50;99.90
35796;DHT22;21916;52.428;13.302;2022-07-15T08:23:14;17.20;99.90
35796;DHT22;21916;52.428;13.302;2022-07-15T08:25:45;17.20;99.90
35796;DHT22;21916;52.428;13.302;2022-07-15T08:28:12;17.20;99.90
35796;DHT22;21916;52.428;13.302;2022-07-15T08:30:37;17.20;99.90
35796;DHT22;21916;52.428;13.302;2022-07-15T08:33:03;17.10;99.90
35796;DHT22;21916;52.428;13.302;2022-07-15T08:35:30;16.80;99.90
35796;DHT22;21916;52.428;13.302;2022-07-15T08:37:56;16.60;99.90
35796;DHT22;21916;52.428;13.302;2022-07-15T08:40:23;16.60;99.90
35796;DHT22;21916;52.428;13.302;2022-07-15T08:42:50;16.70;99.90
35796;DHT22;21916;52.428;13.302;2022-07-15T08:45:16;16.70;99.90
35796;DHT22;21916;52.428;13.302;2022-07-15T08:47:46;16.80;99.90
35796;DHT22;21916;52.428;13.302;2022-07-15T08:50:16;16.80;99.90
35796;DHT22;21916;52.428;13.302;2022-07-15T08:52:44;17.00;99.90
35796;DHT22;21916;52.428;13.302;2022-07-15T08:55:11;17.10;99.90
35796;DHT22;21916;52.428;13.302;2022-07-15T08:57:37;17.30;99.90
35796;DHT22;21916;52.428;13.302;2022-07-15T09:00:05;17.50;99.90
35796;DHT22;21916;52.428;13.302;2022-07-15T09:02:35;17.50;99.90
35796;DHT22;21916;52.428;13.302;2022-07-15T09:10:20;17.60;99.90
35796;DHT22;21916;52.428;13.302;2022-07-15T09:12:51;17.80;99.90
35796;DHT22;21916;52.428;13.302;2022-07-15T09:15:35;18.20;99.50
35796;DHT22;21916;52.428;13.302;2022-07-15T09:18:20;18.10;99.30
35796;DHT22;21916;52.428;13.302;2022-07-15T09:20:47;17.70;99.40
35796;DHT22;21916;52.428;13.302;2022-07-15T09:23:17;17.50;99.90
35796;DHT22;21916;52.428;13.302;2022-07-15T09:28:46;17.20;99.90
35796;DHT22;21916;52.428;13.302;2022-07-15T09:31:14;17.10;99.90
35796;DHT22;21916;52.428;13.302;2022-07-15T09:34:09;17.00;99.90
35796;DHT22;21916;52.428;13.302;2022-07-15T09:36:42;17.00;99.60
35796;DHT22;21916;52.428;13.302;2022-07-15T09:39:08;17.10;99.40
35796;DHT22;21916;52.428;13.302;2022-07-15T09:41:39;17.20;99.40
35796;DHT22;21916;52.428;13.302;2022-07-15T09:46:49;17.70;98.80
35796;DHT22;21916;52.428;13.302;2022-07-15T09:51:56;18.00;97.80
35796;DHT22;21916;52.428;13.302;2022-07-15T09:54:23;18.00;98.40
35796;DHT22;21916;52.428;13.302;2022-07-15T09:56:50;18.10;98.00
35796;DHT22;21916;52.428;13.302;2022-07-15T09:59:17;17.90;98.10
35796;DHT22;21916;52.428;13.302;2022-07-15T10:01:43;18.10;98.30
35796;DHT22;21916;52.428;13.302;2022-07-15T10:04:10;18.50;97.80
35796;DHT22;21916;52.428;13.302;2022-07-15T10:06:38;18.60;97.30
35796;DHT22;21916;52.428;13.302;2022-07-15T10:09:06;18.60;97.50
35796;DHT22;21916;52.428;13.302;2022-07-15T10:11:36;18.60;97.10
35796;DHT22;21916;52.428;13.302;2022-07-15T10:22:27;18.50;97.50
35796;DHT22;21916;52.428;13.302;2022-07-15T10:28:24;19.30;97.30
35796;DHT22;21916;52.428;13.302;2022-07-15T10:31:14;19.00;97.10
35796;DHT22;21916;52.428;13.302;2022-07-15T10:39:20;18.20;97.80
35796;DHT22;21916;52.428;13.302;2022-07-15T10:44:27;18.20;98.10
35796;DHT22;21916;52.428;13.302;2022-07-15T10:49:38;18.50;96.90
35796;DHT22;21916;52.428;13.302;2022-07-15T10:52:16;18.40;97.10
35796;DHT22;21916;52.428;13.302;2022-07-15T10:54:50;18.40;97.10
35796;DHT22;21916;52.428;13.302;2022-07-15T10:57:18;18.30;96.90
35796;DHT22;21916;52.428;13.302;2022-07-15T10:59:54;18.30;97.20
35796;DHT22;21916;52.428;13.302;2022-07-15T11:02:24;18.70;97.10
35796;DHT22;21916;52.428;13.302;2022-07-15T11:04:51;19.20;96.10
35796;DHT22;21916;52.428;13.302;2022-07-15T11:07:19;19.80;95.00
35796;DHT22;21916;52.428;13.302;2022-07-15T11:12:15;20.20;94.20
35796;DHT22;21916;52.428;13.302;2022-07-15T11:14:51;20.20;92.50
35796;DHT22;21916;52.428;13.302;2022-07-15T11:17:22;20.10;92.90
35796;DHT22;21916;52.428;13.302;2022-07-15T11:19:54;19.60;93.00
35796;DHT22;21916;52.428;13.302;2022-07-15T11:22:22;19.20;93.20
35796;DHT22;21916;52.428;13.302;2022-07-15T11:24:48;19.20;93.70
35796;DHT22;21916;52.428;13.302;2022-07-15T11:27:14;19.20;93.40
35796;DHT22;21916;52.428;13.302;2022-07-15T11:29:45;19.20;93.20
35796;DHT22;21916;52.428;13.302;2022-07-15T11:32:12;19.50;93.40
35796;DHT22;21916;52.428;13.302;2022-07-15T11:34:41;19.50;92.70
35796;DHT22;21916;52.428;13.302;2022-07-15T11:37:07;19.40;92.40
35796;DHT22;21916;52.428;13.302;2022-07-15T11:39:33;19.80;92.50
35796;DHT22;21916;52.428;13.302;2022-07-15T11:41:59;19.70;92.20
35796;DHT22;21916;52.428;13.302;2022-07-15T11:44:48;19.80;92.30
35796;DHT22;21916;52.428;13.302;2022-07-15T11:47:14;20.30;91.70
35796;DHT22;21916;52.428;13.302;2022-07-15T11:49:40;20.10;91.20
35796;DHT22;21916;52.428;13.302;2022-07-15T11:52:09;19.90;91.70
35796;DHT22;21916;52.428;13.302;2022-07-15T11:54:38;19.50;91.90
35796;DHT22;21916;52.428;13.302;2022-07-15T11:57:07;19.50;92.20
35796;DHT22;21916;52.428;13.302;2022-07-15T11:59:34;19.50;92.30
35796;DHT22;21916;52.428;13.302;2022-07-15T12:02:10;19.60;92.50
35796;DHT22;21916;52.428;13.302;2022-07-15T12:04:39;20.00;92.10
35796;DHT22;21916;52.428;13.302;2022-07-15T12:07:05;20.20;91.50
35796;DHT22;21916;52.428;13.302;2022-07-15T12:09:41;20.10;91.80
35796;DHT22;21916;52.428;13.302;2022-07-15T12:12:07;20.00;91.80
35796;DHT22;21916;52.428;13.302;2022-07-15T12:14:33;20.70;91.10
35796;DHT22;21916;52.428;13.302;2022-07-15T12:17:00;21.10;90.40
35796;DHT22;21916;52.428;13.302;2022-07-15T12:19:31;20.70;90.50
35796;DHT22;21916;52.428;13.302;2022-07-15T12:21:59;20.60;90.80
35796;DHT22;21916;52.428;13.302;2022-07-15T12:24:45;22.10;89.30
35796;DHT22;21916;52.428;13.302;2022-07-15T12:27:13;22.80;87.80
35796;DHT22;21916;52.428;13.302;2022-07-15T12:29:40;23.10;86.10
35796;DHT22;21916;52.428;13.302;2022-07-15T12:32:08;22.10;85.90
35796;DHT22;21916;52.428;13.302;2022-07-15T12:37:21;21.20;89.60
35796;DHT22;21916;52.428;13.302;2022-07-15T12:42:25;20.90;90.10
35796;DHT22;21916;52.428;13.302;2022-07-15T12:45:11;20.30;90.10
35796;DHT22;21916;52.428;13.302;2022-07-15T12:48:05;19.90;90.50
35796;DHT22;21916;52.428;13.302;2022-07-15T12:50:35;20.00;90.70
35796;DHT22;21916;52.428;13.302;2022-07-15T12:53:04;20.20;90.90
35796;DHT22;21916;52.428;13.302;2022-07-15T12:55:32;20.50;90.50
35796;DHT22;21916;52.428;13.302;2022-07-15T12:58:08;20.80;89.90
35796;DHT22;21916;52.428;13.302;2022-07-15T13:00:35;21.60;88.40
35796;DHT22;21916;52.428;13.302;2022-07-15T13:08:00;22.60;84.10
35796;DHT22;21916;52.428;13.302;2022-07-15T13:10:28;21.70;86.70
35796;DHT22;21916;52.428;13.302;2022-07-15T13:12:54;20.80;88.30
35796;DHT22;21916;52.428;13.302;2022-07-15T13:15:20;20.80;88.60
35796;DHT22;21916;52.428;13.302;2022-07-15T13:17:46;20.80;89.30
35796;DHT22;21916;52.428;13.302;2022-07-15T13:20:12;20.80;89.30
35796;DHT22;21916;52.428;13.302;2022-07-15T13:22:39;20.70;89.10
35796;DHT22;21916;52.428;13.302;2022-07-15T13:25:05;20.60;89.20
35796;DHT22;21916;52.428;13.302;2022-07-15T13:27:31;20.40;89.00
35796;DHT22;21916;52.428;13.302;2022-07-15T13:29:57;20.20;89.80
35796;DHT22;21916;52.428;13.302;2022-07-15T13:32:25;20.30;89.80
35796;DHT22;21916;52.428;13.302;2022-07-15T13:34:51;20.60;89.40
35796;DHT22;21916;52.428;13.302;2022-07-15T13:37:16;20.50;89.00
35796;DHT22;21916;52.428;13.302;2022-07-15T13:39:42;20.60;89.00
35796;DHT22;21916;52.428;13.302;2022-07-15T13:42:08;20.70;88.70
35796;DHT22;21916;52.428;13.302;2022-07-15T13:44:34;20.80;88.10
35796;DHT22;21916;52.428;13.302;2022-07-15T13:47:00;21.40;87.60
35796;DHT22;21916;52.428;13.302;2022-07-15T13:49:26;22.20;85.60
35796;DHT22;21916;52.428;13.302;2022-07-15T13:52:10;22.90;84.50
35796;DHT22;21916;52.428;13.302;2022-07-15T13:54:42;24.00;82.10
35796;DHT22;21916;52.428;13.302;2022-07-15T13:57:08;23.80;81.60
35796;DHT22;21916;52.428;13.302;2022-07-15T13:59:34;23.00;82.40
35796;DHT22;21916;52.428;13.302;2022-07-15T14:02:00;22.00;84.30
35796;DHT22;21916;52.428;13.302;2022-07-15T14:04:28;21.60;85.80
35796;DHT22;21916;52.428;13.302;2022-07-15T14:06:54;21.50;86.50
35796;DHT22;21916;52.428;13.302;2022-07-15T14:09:20;21.80;86.10
35796;DHT22;21916;52.428;13.302;2022-07-15T14:11:46;23.20;84.50
35796;DHT22;21916;52.428;13.302;2022-07-15T14:14:11;23.20;82.80
35796;DHT22;21916;52.428;13.302;2022-07-15T14:16:37;22.50;83.30
35796;DHT22;21916;52.428;13.302;2022-07-15T14:19:03;22.10;84.70
35796;DHT22;21916;52.428;13.302;2022-07-15T14:21:29;21.80;86.10
35796;DHT22;21916;52.428;13.302;2022-07-15T14:23:55;21.80;85.60
35796;DHT22;21916;52.428;13.302;2022-07-15T14:26:21;22.20;84.70
35796;DHT22;21916;52.428;13.302;2022-07-15T14:28:47;23.10;83.30
35796;DHT22;21916;52.428;13.302;2022-07-15T14:31:13;23.00;82.50
35796;DHT22;21916;52.428;13.302;2022-07-15T14:33:40;23.50;83.00
35796;DHT22;21916;52.428;13.302;2022-07-15T14:36:10;24.40;80.70
35796;DHT22;21916;52.428;13.302;2022-07-15T14:38:37;23.80;80.20
35796;DHT22;21916;52.428;13.302;2022-07-15T14:41:04;23.10;81.70
35796;DHT22;21916;52.428;13.302;2022-07-15T14:43:30;22.80;81.80
35796;DHT22;21916;52.428;13.302;2022-07-15T14:45:56;22.30;81.40
35796;DHT22;21916;52.428;13.302;2022-07-15T14:48:22;21.90;82.90
35796;DHT22;21916;52.428;13.302;2022-07-15T14:50:48;22.20;83.60
35796;DHT22;21916;52.428;13.302;2022-07-15T14:53:15;23.70;81.30
35796;DHT22;21916;52.428;13.302;2022-07-15T14:55:41;23.60;79.90
35796;DHT22;21916;52.428;13.302;2022-07-15T14:58:07;23.20;80.30
35796;DHT22;21916;52.428;13.302;2022-07-15T15:00:33;22.90;80.20
35796;DHT22;21916;52.428;13.302;2022-07-15T15:02:59;22.30;81.40
35796;DHT22;21916;52.428;13.302;2022-07-15T15:05:25;22.00;82.40
35796;DHT22;21916;52.428;13.302;2022-07-15T15:07:51;21.70;83.00
35796;DHT22;21916;52.428;13.302;2022-07-15T15:10:16;21.60;83.80
35796;DHT22;21916;52.428;13.302;2022-07-15T15:12:42;21.50;83.40
35796;DHT22;21916;52.428;13.302;2022-07-15T15:15:08;21.40;83.60
35796;DHT22;21916;52.428;13.302;2022-07-15T15:17:34;21.10;83.80
35796;DHT22;21916;52.428;13.302;2022-07-15T15:20:00;21.30;83.90
35796;DHT22;21916;52.428;13.302;2022-07-15T15:22:31;21.30;84.30
35796;DHT22;21916;52.428;13.302;2022-07-15T15:24:57;21.30;83.40
35796;DHT22;21916;52.428;13.302;2022-07-15T15:27:23;22.20;81.90
35796;DHT22;21916;52.428;13.302;2022-07-15T15:29:49;22.80;80.50
35796;DHT22;21916;52.428;13.302;2022-07-15T15:32:15;22.90;80.10
35796;DHT22;21916;52.428;13.302;2022-07-15T15:34:43;22.60;80.00
35796;DHT22;21916;52.428;13.302;2022-07-15T15:37:09;22.20;81.50
35796;DHT22;21916;52.428;13.302;2022-07-15T15:39:35;21.50;82.00
35796;DHT22;21916;52.428;13.302;2022-07-15T15:42:01;21.50;82.90
35796;DHT22;21916;52.428;13.302;2022-07-15T15:44:27;21.50;83.10
35796;DHT22;21916;52.428;13.302;2022-07-15T15:46:53;21.60;83.50
35796;DHT22;21916;52.428;13.302;2022-07-15T15:49:19;21.60;83.10
35796;DHT22;21916;52.428;13.302;2022-07-15T15:51:45;21.70;82.90
35796;DHT22;21916;52.428;13.302;2022-07-15T15:54:11;22.90;81.70
35796;DHT22;21916;52.428;13.302;2022-07-15T15:56:37;24.70;77.70
35796;DHT22;21916;52.428;13.302;2022-07-15T15:59:03;24.40;76.50
35796;DHT22;21916;52.428;13.302;2022-07-15T16:01:29;24.40;76.70
35796;DHT22;21916;52.428;13.302;2022-07-15T16:03:55;25.20;75.50
35796;DHT22;21916;52.428;13.302;2022-07-15T16:06:21;25.70;74.50
35796;DHT22;21916;52.428;13.302;2022-07-15T16:08:47;26.40;73.90
35796;DHT22;21916;52.428;13.302;2022-07-15T16:11:14;26.30;72.50